sensor_id;sensor_type;location;lat;lon;timestamp;P1;durP1;ratioP1;P2;durP2;ratioP2
49758;SDS011;70329;45.524;10.194;2024-02-04T00:02:05;104.55;;;43.38;;
49758;SDS011;70329;45.524;10.194;2024-02-04T00:04:33;105.95;;;44.17;;
49758;SDS011;70329;45.524;10.194;2024-02-04T00:07:01;107.38;;;43.22;;
49758;SDS011;70329;45.524;10.194;2024-02-04T00:11:54;104.55;;;40.92;;
49758;SDS011;70329;45.524;10.194;2024-02-04T00:16:47;99.75;;;39.58;;
49758;SDS011;70329;45.524;10.194;2024-02-04T00:21:41;96.75;;;40.08;;
49758;SDS011;70329;45.524;10.194;2024-02-04T00:24:08;96.45;;;38.45;;
49758;SDS011;70329;45.524;10.194;2024-02-04T00:29:01;99.72;;;41.10;;
49758;SDS011;70329;45.524;10.194;2024-02-04T00:33:54;94.80;;;39.17;;
49758;SDS011;70329;45.524;10.194;2024-02-04T00:38:49;89.78;;;37.55;;
49758;SDS011;70329;45.524;10.194;2024-02-04T00:41:15;95.88;;;39.13;;
49758;SDS011;70329;45.524;10.194;2024-02-04T00:46:08;87.32;;;36.40;;
49758;SDS011;70329;45.524;10.194;2024-02-04T00:48:36;95.93;;;39.22;;
49758;SDS011;70329;45.524;10.194;2024-02-04T00:53:28;94.38;;;38.03;;
49758;SDS011;70329;45.524;10.194;2024-02-04T00:56:00;87.38;;;37.53;;
49758;SDS011;70329;45.524;10.194;2024-02-04T00:58:28;93.55;;;39.67;;
49758;SDS011;70329;45.524;10.194;2024-02-04T01:00:54;88.63;;;37.30;;
49758;SDS011;70329;45.524;10.194;2024-02-04T01:05:48;102.47;;;39.50;;
49758;SDS011;70329;45.524;10.194;2024-02-04T01:08:14;91.43;;;39.15;;
49758;SDS011;70329;45.524;10.194;2024-02-04T01:10:41;97.05;;;37.78;;
49758;SDS011;70329;45.524;10.194;2024-02-04T01:15:35;103.05;;;41.00;;
49758;SDS011;70329;45.524;10.194;2024-02-04T01:18:02;104.55;;;41.88;;
49758;SDS011;70329;45.524;10.194;2024-02-04T01:20:29;100.57;;;40.13;;
49758;SDS011;70329;45.524;10.194;2024-02-04T01:22:56;98.72;;;41.13;;
49758;SDS011;70329;45.524;10.194;2024-02-04T01:27:49;94.00;;;38.67;;
49758;SDS011;70329;45.524;10.194;2024-02-04T01:30:17;97.07;;;38.90;;
49758;SDS011;70329;45.524;10.194;2024-02-04T01:32:43;96.45;;;39.72;;
49758;SDS011;70329;45.524;10.194;2024-02-04T01:35:10;92.55;;;37.53;;
49758;SDS011;70329;45.524;10.194;2024-02-04T01:37:37;93.50;;;38.88;;
49758;SDS011;70329;45.524;10.194;2024-02-04T01:42:31;89.38;;;36.53;;
49758;SDS011;70329;45.524;10.194;2024-02-04T01:44:58;91.53;;;37.10;;
49758;SDS011;70329;45.524;10.194;2024-02-04T01:47:26;92.18;;;37.88;;
49758;SDS011;70329;45.524;10.194;2024-02-04T01:49:52;85.78;;;36.80;;
49758;SDS011;70329;45.524;10.194;2024-02-04T01:52:19;85.03;;;35.28;;
49758;SDS011;70329;45.524;10.194;2024-02-04T01:57:14;91.38;;;35.80;;
49758;SDS011;70329;45.524;10.194;2024-02-04T01:59:40;80.63;;;34.53;;
49758;SDS011;70329;45.524;10.194;2024-02-04T02:02:07;77.10;;;33.10;;
49758;SDS011;70329;45.524;10.194;2024-02-04T02:04:36;81.32;;;33.35;;
49758;SDS011;70329;45.524;10.194;2024-02-04T02:07:02;82.70;;;36.00;;
49758;SDS011;70329;45.524;10.194;2024-02-04T02:09:32;86.20;;;36.00;;
49758;SDS011;70329;45.524;10.194;2024-02-04T02:14:30;81.70;;;32.92;;
49758;SDS011;70329;45.524;10.194;2024-02-04T02:17:00;88.10;;;34.60;;
49758;SDS011;70329;45.524;10.194;2024-02-04T02:19:32;87.28;;;36.08;;
49758;SDS011;70329;45.524;10.194;2024-02-04T02:22:15;78.22;;;33.47;;
49758;SDS011;70329;45.524;10.194;2024-02-04T02:24:51;89.05;;;35.47;;
49758;SDS011;70329;45.524;10.194;2024-02-04T02:27:19;84.20;;;35.97;;
49758;SDS011;70329;45.524;10.194;2024-02-04T02:29:46;81.85;;;36.78;;
49758;SDS011;70329;45.524;10.194;2024-02-04T02:34:39;112.55;;;44.80;;
49758;SDS011;70329;45.524;10.194;2024-02-04T02:39:39;101.35;;;42.38;;
49758;SDS011;70329;45.524;10.194;2024-02-04T02:42:13;115.93;;;47.03;;
49758;SDS011;70329;45.524;10.194;2024-02-04T02:44:41;122.68;;;51.67;;
49758;SDS011;70329;45.524;10.194;2024-02-04T02:47:09;125.93;;;51.08;;
49758;SDS011;70329;45.524;10.194;2024-02-04T02:49:37;128.13;;;49.40;;
49758;SDS011;70329;45.524;10.194;2024-02-04T02:54:31;128.65;;;50.65;;
49758;SDS011;70329;45.524;10.194;2024-02-04T02:56:57;128.13;;;52.03;;
49758;SDS011;70329;45.524;10.194;2024-02-04T02:59:27;129.38;;;54.92;;
49758;SDS011;70329;45.524;10.194;2024-02-04T03:01:53;128.93;;;52.95;;
49758;SDS011;70329;45.524;10.194;2024-02-04T03:06:46;147.50;;;57.28;;
49758;SDS011;70329;45.524;10.194;2024-02-04T03:09:13;128.82;;;53.70;;
49758;SDS011;70329;45.524;10.194;2024-02-04T03:11:40;131.63;;;54.33;;
49758;SDS011;70329;45.524;10.194;2024-02-04T03:14:07;154.63;;;61.00;;
49758;SDS011;70329;45.524;10.194;2024-02-04T03:16:36;158.35;;;62.10;;
49758;SDS011;70329;45.524;10.194;2024-02-04T03:19:04;144.68;;;59.75;;
49758;SDS011;70329;45.524;10.194;2024-02-04T03:21:31;157.95;;;60.05;;
49758;SDS011;70329;45.524;10.194;2024-02-04T03:23:59;160.02;;;62.72;;
49758;SDS011;70329;45.524;10.194;2024-02-04T03:26:26;148.32;;;59.67;;
49758;SDS011;70329;45.524;10.194;2024-02-04T03:28:54;157.18;;;61.78;;
49758;SDS011;70329;45.524;10.194;2024-02-04T03:31:21;152.65;;;59.88;;
49758;SDS011;70329;45.524;10.194;2024-02-04T03:33:51;155.00;;;64.53;;
49758;SDS011;70329;45.524;10.194;2024-02-04T03:36:18;154.40;;;60.95;;
49758;SDS011;70329;45.524;10.194;2024-02-04T03:38:51;159.23;;;60.72;;
49758;SDS011;70329;45.524;10.194;2024-02-04T03:41:18;159.00;;;62.10;;
49758;SDS011;70329;45.524;10.194;2024-02-04T03:46:13;153.98;;;62.38;;
49758;SDS011;70329;45.524;10.194;2024-02-04T03:48:40;166.32;;;61.60;;
49758;SDS011;70329;45.524;10.194;2024-02-04T03:53:35;155.63;;;59.85;;
49758;SDS011;70329;45.524;10.194;2024-02-04T03:56:01;154.50;;;60.53;;
49758;SDS011;70329;45.524;10.194;2024-02-04T03:58:28;150.25;;;60.60;;
49758;SDS011;70329;45.524;10.194;2024-02-04T04:03:25;139.68;;;56.40;;
49758;SDS011;70329;45.524;10.194;2024-02-04T04:05:53;139.02;;;53.13;;
49758;SDS011;70329;45.524;10.194;2024-02-04T04:08:21;135.02;;;51.63;;
49758;SDS011;70329;45.524;10.194;2024-02-04T04:10:48;118.22;;;45.47;;
49758;SDS011;70329;45.524;10.194;2024-02-04T04:13:16;102.00;;;41.78;;
49758;SDS011;70329;45.524;10.194;2024-02-04T04:15:42;100.25;;;42.05;;
49758;SDS011;70329;45.524;10.194;2024-02-04T04:20:36;102.35;;;40.72;;
49758;SDS011;70329;45.524;10.194;2024-02-04T04:23:03;98.43;;;40.15;;
49758;SDS011;70329;45.524;10.194;2024-02-04T04:25:31;85.80;;;36.45;;
49758;SDS011;70329;45.524;10.194;2024-02-04T04:27:58;88.03;;;35.08;;
49758;SDS011;70329;45.524;10.194;2024-02-04T04:32:51;87.00;;;35.92;;
49758;SDS011;70329;45.524;10.194;2024-02-04T04:35:18;93.72;;;37.78;;
49758;SDS011;70329;45.524;10.194;2024-02-04T04:37:44;96.28;;;37.95;;
49758;SDS011;70329;45.524;10.194;2024-02-04T04:42:39;95.63;;;37.45;;
49758;SDS011;70329;45.524;10.194;2024-02-04T04:45:06;90.75;;;35.45;;
49758;SDS011;70329;45.524;10.194;2024-02-04T04:47:34;82.00;;;32.70;;
49758;SDS011;70329;45.524;10.194;2024-02-04T04:50:00;73.40;;;30.73;;
49758;SDS011;70329;45.524;10.194;2024-02-04T04:52:27;72.85;;;30.17;;
49758;SDS011;70329;45.524;10.194;2024-02-04T04:54:55;75.70;;;31.55;;
49758;SDS011;70329;45.524;10.194;2024-02-04T04:57:23;77.35;;;31.02;;
49758;SDS011;70329;45.524;10.194;2024-02-04T04:59:52;76.13;;;30.65;;
49758;SDS011;70329;45.524;10.194;2024-02-04T05:02:20;77.20;;;31.00;;
49758;SDS011;70329;45.524;10.194;2024-02-04T05:04:46;74.68;;;30.25;;
49758;SDS011;70329;45.524;10.194;2024-02-04T05:07:14;70.55;;;29.60;;
49758;SDS011;70329;45.524;10.194;2024-02-04T05:09:42;69.30;;;29.02;;
49758;SDS011;70329;45.524;10.194;2024-02-04T05:12:10;72.75;;;29.42;;
49758;SDS011;70329;45.524;10.194;2024-02-04T05:17:05;77.10;;;29.42;;
49758;SDS011;70329;45.524;10.194;2024-02-04T05:19:32;69.90;;;28.13;;
49758;SDS011;70329;45.524;10.194;2024-02-04T05:22:00;71.47;;;28.25;;
49758;SDS011;70329;45.524;10.194;2024-02-04T05:24:27;64.75;;;27.27;;
49758;SDS011;70329;45.524;10.194;2024-02-04T05:26:54;67.63;;;29.60;;
49758;SDS011;70329;45.524;10.194;2024-02-04T05:29:21;76.03;;;29.45;;
49758;SDS011;70329;45.524;10.194;2024-02-04T05:34:17;65.70;;;27.27;;
49758;SDS011;70329;45.524;10.194;2024-02-04T05:36:45;73.78;;;28.42;;
49758;SDS011;70329;45.524;10.194;2024-02-04T05:39:16;72.78;;;27.85;;
49758;SDS011;70329;45.524;10.194;2024-02-04T05:41:43;67.63;;;28.50;;
49758;SDS011;70329;45.524;10.194;2024-02-04T05:46:36;64.20;;;27.10;;
49758;SDS011;70329;45.524;10.194;2024-02-04T05:49:03;68.00;;;27.50;;
49758;SDS011;70329;45.524;10.194;2024-02-04T05:51:32;61.33;;;26.40;;
49758;SDS011;70329;45.524;10.194;2024-02-04T05:54:03;67.70;;;27.73;;
49758;SDS011;70329;45.524;10.194;2024-02-04T05:58:57;62.55;;;25.17;;
49758;SDS011;70329;45.524;10.194;2024-02-04T06:01:25;55.80;;;23.98;;
49758;SDS011;70329;45.524;10.194;2024-02-04T06:03:53;65.63;;;25.55;;
49758;SDS011;70329;45.524;10.194;2024-02-04T06:06:21;60.72;;;26.00;;
49758;SDS011;70329;45.524;10.194;2024-02-04T06:08:50;65.63;;;27.42;;
49758;SDS011;70329;45.524;10.194;2024-02-04T06:11:18;66.13;;;26.77;;
49758;SDS011;70329;45.524;10.194;2024-02-04T06:13:44;59.42;;;25.15;;
49758;SDS011;70329;45.524;10.194;2024-02-04T06:18:38;63.97;;;25.70;;
49758;SDS011;70329;45.524;10.194;2024-02-04T06:21:05;57.88;;;23.70;;
49758;SDS011;70329;45.524;10.194;2024-02-04T06:26:00;54.70;;;22.73;;
49758;SDS011;70329;45.524;10.194;2024-02-04T06:28:27;55.90;;;23.95;;
49758;SDS011;70329;45.524;10.194;2024-02-04T06:30:53;56.75;;;24.60;;
49758;SDS011;70329;45.524;10.194;2024-02-04T06:33:20;55.35;;;23.70;;
49758;SDS011;70329;45.524;10.194;2024-02-04T06:35:48;58.92;;;24.48;;
49758;SDS011;70329;45.524;10.194;2024-02-04T06:38:14;57.05;;;24.50;;
49758;SDS011;70329;45.524;10.194;2024-02-04T06:43:09;60.00;;;24.20;;
49758;SDS011;70329;45.524;10.194;2024-02-04T06:45:36;56.85;;;23.85;;
49758;SDS011;70329;45.524;10.194;2024-02-04T06:48:03;54.42;;;23.70;;
49758;SDS011;70329;45.524;10.194;2024-02-04T06:50:30;59.85;;;23.88;;
49758;SDS011;70329;45.524;10.194;2024-02-04T06:52:56;54.47;;;23.08;;
49758;SDS011;70329;45.524;10.194;2024-02-04T06:57:49;56.00;;;22.92;;
49758;SDS011;70329;45.524;10.194;2024-02-04T07:00:18;55.97;;;23.00;;
49758;SDS011;70329;45.524;10.194;2024-02-04T07:02:48;59.88;;;24.13;;
49758;SDS011;70329;45.524;10.194;2024-02-04T07:05:16;56.47;;;23.50;;
49758;SDS011;70329;45.524;10.194;2024-02-04T07:07:43;58.47;;;24.33;;
49758;SDS011;70329;45.524;10.194;2024-02-04T07:10:09;63.75;;;26.33;;
49758;SDS011;70329;45.524;10.194;2024-02-04T07:15:03;63.22;;;25.55;;
49758;SDS011;70329;45.524;10.194;2024-02-04T07:17:31;66.40;;;25.95;;
49758;SDS011;70329;45.524;10.194;2024-02-04T07:19:58;62.88;;;25.85;;
49758;SDS011;70329;45.524;10.194;2024-02-04T07:24:51;63.88;;;25.90;;
49758;SDS011;70329;45.524;10.194;2024-02-04T07:27:18;61.13;;;25.30;;
49758;SDS011;70329;45.524;10.194;2024-02-04T07:29:44;57.88;;;25.30;;
49758;SDS011;70329;45.524;10.194;2024-02-04T07:32:13;63.05;;;25.60;;
49758;SDS011;70329;45.524;10.194;2024-02-04T07:34:43;63.13;;;26.00;;
49758;SDS011;70329;45.524;10.194;2024-02-04T07:37:10;67.72;;;28.02;;
49758;SDS011;70329;45.524;10.194;2024-02-04T07:39:38;81.97;;;34.42;;
49758;SDS011;70329;45.524;10.194;2024-02-04T07:42:06;72.32;;;31.75;;
49758;SDS011;70329;45.524;10.194;2024-02-04T07:44:34;75.90;;;31.73;;
49758;SDS011;70329;45.524;10.194;2024-02-04T07:47:02;79.03;;;32.92;;
49758;SDS011;70329;45.524;10.194;2024-02-04T07:49:29;81.70;;;35.28;;
49758;SDS011;70329;45.524;10.194;2024-02-04T07:51:57;83.20;;;35.28;;
49758;SDS011;70329;45.524;10.194;2024-02-04T07:54:25;83.45;;;33.20;;
49758;SDS011;70329;45.524;10.194;2024-02-04T07:56:52;83.35;;;34.50;;
49758;SDS011;70329;45.524;10.194;2024-02-04T07:59:20;75.68;;;31.95;;
49758;SDS011;70329;45.524;10.194;2024-02-04T08:01:48;81.15;;;32.15;;
49758;SDS011;70329;45.524;10.194;2024-02-04T08:04:15;72.05;;;30.48;;
49758;SDS011;70329;45.524;10.194;2024-02-04T08:09:10;70.90;;;29.42;;
49758;SDS011;70329;45.524;10.194;2024-02-04T08:11:37;67.15;;;29.52;;
49758;SDS011;70329;45.524;10.194;2024-02-04T08:14:05;82.03;;;30.98;;
49758;SDS011;70329;45.524;10.194;2024-02-04T08:16:32;76.20;;;30.98;;
49758;SDS011;70329;45.524;10.194;2024-02-04T08:18:58;74.03;;;32.80;;
49758;SDS011;70329;45.524;10.194;2024-02-04T08:23:52;84.60;;;34.03;;
49758;SDS011;70329;45.524;10.194;2024-02-04T08:26:20;81.88;;;34.28;;
49758;SDS011;70329;45.524;10.194;2024-02-04T08:28:47;106.10;;;42.78;;
49758;SDS011;70329;45.524;10.194;2024-02-04T08:31:14;125.00;;;49.15;;
49758;SDS011;70329;45.524;10.194;2024-02-04T08:33:42;167.95;;;64.82;;
49758;SDS011;70329;45.524;10.194;2024-02-04T08:36:10;155.57;;;58.25;;
49758;SDS011;70329;45.524;10.194;2024-02-04T08:38:37;178.63;;;70.20;;
49758;SDS011;70329;45.524;10.194;2024-02-04T08:41:04;190.43;;;77.40;;
49758;SDS011;70329;45.524;10.194;2024-02-04T08:43:37;202.98;;;81.90;;
49758;SDS011;70329;45.524;10.194;2024-02-04T08:46:08;209.82;;;82.50;;
49758;SDS011;70329;45.524;10.194;2024-02-04T08:48:35;197.88;;;78.20;;
49758;SDS011;70329;45.524;10.194;2024-02-04T08:51:02;204.18;;;81.63;;
49758;SDS011;70329;45.524;10.194;2024-02-04T08:55:55;209.52;;;80.07;;
49758;SDS011;70329;45.524;10.194;2024-02-04T08:58:22;214.57;;;81.40;;
49758;SDS011;70329;45.524;10.194;2024-02-04T09:00:51;207.30;;;79.88;;
49758;SDS011;70329;45.524;10.194;2024-02-04T09:03:18;197.38;;;78.53;;
49758;SDS011;70329;45.524;10.194;2024-02-04T09:05:47;198.57;;;78.35;;
49758;SDS011;70329;45.524;10.194;2024-02-04T09:08:14;207.93;;;80.70;;
49758;SDS011;70329;45.524;10.194;2024-02-04T09:10:42;210.18;;;79.60;;
49758;SDS011;70329;45.524;10.194;2024-02-04T09:13:10;198.98;;;78.35;;
49758;SDS011;70329;45.524;10.194;2024-02-04T09:15:37;193.38;;;77.20;;
49758;SDS011;70329;45.524;10.194;2024-02-04T09:18:12;200.40;;;79.65;;
49758;SDS011;70329;45.524;10.194;2024-02-04T09:20:45;192.05;;;78.57;;
49758;SDS011;70329;45.524;10.194;2024-02-04T09:23:13;191.65;;;76.78;;
49758;SDS011;70329;45.524;10.194;2024-02-04T09:25:41;192.88;;;78.25;;
49758;SDS011;70329;45.524;10.194;2024-02-04T09:28:09;183.85;;;74.85;;
49758;SDS011;70329;45.524;10.194;2024-02-04T09:30:36;183.63;;;75.40;;
49758;SDS011;70329;45.524;10.194;2024-02-04T09:33:04;198.48;;;77.85;;
49758;SDS011;70329;45.524;10.194;2024-02-04T09:35:37;197.07;;;79.40;;
49758;SDS011;70329;45.524;10.194;2024-02-04T09:38:05;204.05;;;80.80;;
49758;SDS011;70329;45.524;10.194;2024-02-04T09:40:33;214.27;;;84.10;;
49758;SDS011;70329;45.524;10.194;2024-02-04T09:43:01;208.50;;;84.03;;
49758;SDS011;70329;45.524;10.194;2024-02-04T09:45:31;206.18;;;82.55;;
49758;SDS011;70329;45.524;10.194;2024-02-04T09:48:00;214.23;;;84.90;;
49758;SDS011;70329;45.524;10.194;2024-02-04T09:50:30;215.00;;;85.88;;
49758;SDS011;70329;45.524;10.194;2024-02-04T09:53:00;208.95;;;84.97;;
49758;SDS011;70329;45.524;10.194;2024-02-04T09:55:33;201.82;;;83.10;;
49758;SDS011;70329;45.524;10.194;2024-02-04T09:58:01;214.60;;;86.10;;
49758;SDS011;70329;45.524;10.194;2024-02-04T10:00:30;215.55;;;86.68;;
49758;SDS011;70329;45.524;10.194;2024-02-04T10:02:59;214.77;;;86.38;;
49758;SDS011;70329;45.524;10.194;2024-02-04T10:05:26;203.98;;;84.80;;
49758;SDS011;70329;45.524;10.194;2024-02-04T10:12:51;217.07;;;86.03;;
49758;SDS011;70329;45.524;10.194;2024-02-04T10:15:19;224.43;;;89.47;;
49758;SDS011;70329;45.524;10.194;2024-02-04T10:17:46;215.35;;;86.72;;
49758;SDS011;70329;45.524;10.194;2024-02-04T10:20:14;206.85;;;85.65;;
49758;SDS011;70329;45.524;10.194;2024-02-04T10:22:41;217.60;;;87.20;;
49758;SDS011;70329;45.524;10.194;2024-02-04T10:25:08;220.00;;;89.60;;
49758;SDS011;70329;45.524;10.194;2024-02-04T10:27:37;218.60;;;88.63;;
49758;SDS011;70329;45.524;10.194;2024-02-04T10:30:06;218.43;;;87.47;;
49758;SDS011;70329;45.524;10.194;2024-02-04T10:32:34;225.88;;;90.45;;
49758;SDS011;70329;45.524;10.194;2024-02-04T10:37:27;213.30;;;85.43;;
49758;SDS011;70329;45.524;10.194;2024-02-04T10:39:54;214.15;;;83.00;;
49758;SDS011;70329;45.524;10.194;2024-02-04T10:44:49;208.32;;;81.85;;
49758;SDS011;70329;45.524;10.194;2024-02-04T10:47:22;203.82;;;81.78;;
49758;SDS011;70329;45.524;10.194;2024-02-04T10:49:50;189.57;;;79.53;;
49758;SDS011;70329;45.524;10.194;2024-02-04T10:52:18;203.45;;;80.85;;
49758;SDS011;70329;45.524;10.194;2024-02-04T10:54:45;196.43;;;80.78;;
49758;SDS011;70329;45.524;10.194;2024-02-04T10:57:13;203.68;;;82.70;;
49758;SDS011;70329;45.524;10.194;2024-02-04T10:59:43;193.75;;;77.15;;
49758;SDS011;70329;45.524;10.194;2024-02-04T11:02:10;182.68;;;77.65;;
49758;SDS011;70329;45.524;10.194;2024-02-04T11:04:39;209.95;;;83.05;;
49758;SDS011;70329;45.524;10.194;2024-02-04T11:07:07;193.10;;;80.07;;
49758;SDS011;70329;45.524;10.194;2024-02-04T11:09:36;193.55;;;80.10;;
49758;SDS011;70329;45.524;10.194;2024-02-04T11:12:03;187.50;;;78.57;;
49758;SDS011;70329;45.524;10.194;2024-02-04T11:14:35;186.00;;;75.82;;
49758;SDS011;70329;45.524;10.194;2024-02-04T11:17:18;185.73;;;77.38;;
49758;SDS011;70329;45.524;10.194;2024-02-04T11:22:58;177.32;;;72.88;;
49758;SDS011;70329;45.524;10.194;2024-02-04T11:25:46;170.02;;;71.65;;
49758;SDS011;70329;45.524;10.194;2024-02-04T11:28:15;175.05;;;71.65;;
49758;SDS011;70329;45.524;10.194;2024-02-04T11:30:44;181.50;;;75.35;;
49758;SDS011;70329;45.524;10.194;2024-02-04T11:33:11;166.50;;;68.82;;
49758;SDS011;70329;45.524;10.194;2024-02-04T11:35:41;168.65;;;69.72;;
49758;SDS011;70329;45.524;10.194;2024-02-04T11:38:07;164.95;;;67.53;;
49758;SDS011;70329;45.524;10.194;2024-02-04T11:40:34;158.40;;;67.22;;
49758;SDS011;70329;45.524;10.194;2024-02-04T11:43:05;161.98;;;67.55;;
49758;SDS011;70329;45.524;10.194;2024-02-04T11:45:32;164.85;;;69.50;;
49758;SDS011;70329;45.524;10.194;2024-02-04T11:48:06;161.02;;;68.18;;
49758;SDS011;70329;45.524;10.194;2024-02-04T11:50:33;165.50;;;70.47;;
49758;SDS011;70329;45.524;10.194;2024-02-04T11:53:07;164.88;;;68.50;;
49758;SDS011;70329;45.524;10.194;2024-02-04T11:55:35;174.95;;;70.40;;
49758;SDS011;70329;45.524;10.194;2024-02-04T11:58:03;164.65;;;69.22;;
49758;SDS011;70329;45.524;10.194;2024-02-04T12:00:32;162.02;;;66.88;;
49758;SDS011;70329;45.524;10.194;2024-02-04T12:02:59;152.85;;;65.10;;
49758;SDS011;70329;45.524;10.194;2024-02-04T12:05:27;154.98;;;64.65;;
49758;SDS011;70329;45.524;10.194;2024-02-04T12:07:54;168.85;;;68.32;;
49758;SDS011;70329;45.524;10.194;2024-02-04T12:10:22;163.32;;;68.18;;
49758;SDS011;70329;45.524;10.194;2024-02-04T12:12:49;150.60;;;63.92;;
49758;SDS011;70329;45.524;10.194;2024-02-04T12:15:16;142.77;;;59.50;;
49758;SDS011;70329;45.524;10.194;2024-02-04T12:17:43;133.30;;;55.67;;
49758;SDS011;70329;45.524;10.194;2024-02-04T12:20:10;112.57;;;48.00;;
49758;SDS011;70329;45.524;10.194;2024-02-04T12:22:37;108.13;;;47.72;;
49758;SDS011;70329;45.524;10.194;2024-02-04T12:25:07;111.28;;;47.17;;
49758;SDS011;70329;45.524;10.194;2024-02-04T12:27:38;114.60;;;48.90;;
49758;SDS011;70329;45.524;10.194;2024-02-04T12:30:05;114.32;;;48.65;;
49758;SDS011;70329;45.524;10.194;2024-02-04T12:32:33;111.15;;;48.30;;
49758;SDS011;70329;45.524;10.194;2024-02-04T12:35:01;127.38;;;53.70;;
49758;SDS011;70329;45.524;10.194;2024-02-04T12:37:28;124.72;;;53.60;;
49758;SDS011;70329;45.524;10.194;2024-02-04T12:39:55;133.32;;;53.13;;
49758;SDS011;70329;45.524;10.194;2024-02-04T12:42:24;116.45;;;50.10;;
49758;SDS011;70329;45.524;10.194;2024-02-04T12:44:56;123.43;;;49.05;;
49758;SDS011;70329;45.524;10.194;2024-02-04T12:47:23;94.85;;;41.20;;
49758;SDS011;70329;45.524;10.194;2024-02-04T12:49:57;94.35;;;40.63;;
49758;SDS011;70329;45.524;10.194;2024-02-04T12:52:24;105.65;;;45.63;;
49758;SDS011;70329;45.524;10.194;2024-02-04T12:54:51;115.18;;;47.97;;
49758;SDS011;70329;45.524;10.194;2024-02-04T12:57:22;132.15;;;54.85;;
49758;SDS011;70329;45.524;10.194;2024-02-04T12:59:52;116.55;;;50.50;;
49758;SDS011;70329;45.524;10.194;2024-02-04T13:02:23;113.13;;;48.75;;
49758;SDS011;70329;45.524;10.194;2024-02-04T13:04:51;100.07;;;43.50;;
49758;SDS011;70329;45.524;10.194;2024-02-04T13:07:19;98.47;;;43.97;;
49758;SDS011;70329;45.524;10.194;2024-02-04T13:09:56;74.90;;;33.13;;
49758;SDS011;70329;45.524;10.194;2024-02-04T13:14:56;56.28;;;27.00;;
49758;SDS011;70329;45.524;10.194;2024-02-04T13:17:23;63.22;;;28.35;;
49758;SDS011;70329;45.524;10.194;2024-02-04T13:19:50;59.70;;;28.55;;
49758;SDS011;70329;45.524;10.194;2024-02-04T13:22:18;59.22;;;29.48;;
49758;SDS011;70329;45.524;10.194;2024-02-04T13:24:46;58.15;;;27.42;;
49758;SDS011;70329;45.524;10.194;2024-02-04T13:27:14;58.35;;;27.35;;
49758;SDS011;70329;45.524;10.194;2024-02-04T13:29:42;55.90;;;27.45;;
49758;SDS011;70329;45.524;10.194;2024-02-04T13:32:10;53.83;;;26.08;;
49758;SDS011;70329;45.524;10.194;2024-02-04T13:34:38;54.65;;;26.42;;
49758;SDS011;70329;45.524;10.194;2024-02-04T13:37:05;55.33;;;26.27;;
49758;SDS011;70329;45.524;10.194;2024-02-04T13:39:35;55.38;;;26.67;;
49758;SDS011;70329;45.524;10.194;2024-02-04T13:42:03;54.10;;;26.42;;
49758;SDS011;70329;45.524;10.194;2024-02-04T13:44:31;62.40;;;28.58;;
49758;SDS011;70329;45.524;10.194;2024-02-04T13:46:58;62.30;;;30.05;;
49758;SDS011;70329;45.524;10.194;2024-02-04T13:49:29;67.95;;;31.65;;
49758;SDS011;70329;45.524;10.194;2024-02-04T13:51:57;71.68;;;32.60;;
49758;SDS011;70329;45.524;10.194;2024-02-04T13:54:25;66.28;;;31.88;;
49758;SDS011;70329;45.524;10.194;2024-02-04T13:56:52;62.50;;;31.05;;
49758;SDS011;70329;45.524;10.194;2024-02-04T13:59:21;61.92;;;30.83;;
49758;SDS011;70329;45.524;10.194;2024-02-04T14:01:48;68.95;;;32.45;;
49758;SDS011;70329;45.524;10.194;2024-02-04T14:04:15;64.75;;;31.20;;
49758;SDS011;70329;45.524;10.194;2024-02-04T14:06:48;65.57;;;31.67;;
49758;SDS011;70329;45.524;10.194;2024-02-04T14:09:16;68.10;;;32.50;;
49758;SDS011;70329;45.524;10.194;2024-02-04T14:11:43;68.13;;;33.35;;
49758;SDS011;70329;45.524;10.194;2024-02-04T14:14:11;74.40;;;35.85;;
49758;SDS011;70329;45.524;10.194;2024-02-04T14:16:39;78.88;;;34.97;;
49758;SDS011;70329;45.524;10.194;2024-02-04T14:19:07;69.68;;;32.67;;
49758;SDS011;70329;45.524;10.194;2024-02-04T14:21:40;76.40;;;33.10;;
49758;SDS011;70329;45.524;10.194;2024-02-04T14:24:10;75.50;;;33.95;;
49758;SDS011;70329;45.524;10.194;2024-02-04T14:26:37;70.47;;;31.77;;
49758;SDS011;70329;45.524;10.194;2024-02-04T14:29:07;66.55;;;32.95;;
49758;SDS011;70329;45.524;10.194;2024-02-04T14:31:38;72.95;;;34.67;;
49758;SDS011;70329;45.524;10.194;2024-02-04T14:34:05;69.47;;;34.17;;
49758;SDS011;70329;45.524;10.194;2024-02-04T14:36:34;73.45;;;34.53;;
49758;SDS011;70329;45.524;10.194;2024-02-04T14:39:04;71.78;;;35.65;;
49758;SDS011;70329;45.524;10.194;2024-02-04T14:41:35;75.72;;;35.55;;
49758;SDS011;70329;45.524;10.194;2024-02-04T14:44:03;75.97;;;35.55;;
49758;SDS011;70329;45.524;10.194;2024-02-04T14:46:35;83.45;;;38.70;;
49758;SDS011;70329;45.524;10.194;2024-02-04T14:49:03;86.28;;;38.85;;
49758;SDS011;70329;45.524;10.194;2024-02-04T14:51:31;83.32;;;37.55;;
49758;SDS011;70329;45.524;10.194;2024-02-04T14:54:04;85.60;;;37.85;;
49758;SDS011;70329;45.524;10.194;2024-02-04T14:56:37;78.85;;;37.30;;
49758;SDS011;70329;45.524;10.194;2024-02-04T14:59:09;72.65;;;35.80;;
49758;SDS011;70329;45.524;10.194;2024-02-04T15:01:39;64.82;;;34.13;;
49758;SDS011;70329;45.524;10.194;2024-02-04T15:04:11;73.05;;;35.70;;
49758;SDS011;70329;45.524;10.194;2024-02-04T15:06:40;85.60;;;39.50;;
49758;SDS011;70329;45.524;10.194;2024-02-04T15:09:08;73.65;;;34.60;;
49758;SDS011;70329;45.524;10.194;2024-02-04T15:11:35;78.90;;;35.08;;
49758;SDS011;70329;45.524;10.194;2024-02-04T15:14:04;71.75;;;34.83;;
49758;SDS011;70329;45.524;10.194;2024-02-04T15:16:33;80.90;;;36.60;;
49758;SDS011;70329;45.524;10.194;2024-02-04T15:19:04;72.82;;;34.33;;
49758;SDS011;70329;45.524;10.194;2024-02-04T15:21:32;75.78;;;35.15;;
49758;SDS011;70329;45.524;10.194;2024-02-04T15:23:59;65.28;;;32.42;;
49758;SDS011;70329;45.524;10.194;2024-02-04T15:26:29;69.30;;;33.75;;
49758;SDS011;70329;45.524;10.194;2024-02-04T15:28:58;70.45;;;32.95;;
49758;SDS011;70329;45.524;10.194;2024-02-04T15:31:27;69.10;;;33.05;;
49758;SDS011;70329;45.524;10.194;2024-02-04T15:33:54;64.10;;;33.20;;
49758;SDS011;70329;45.524;10.194;2024-02-04T15:36:21;70.35;;;32.88;;
49758;SDS011;70329;45.524;10.194;2024-02-04T15:38:50;68.05;;;31.27;;
49758;SDS011;70329;45.524;10.194;2024-02-04T15:41:17;67.25;;;31.10;;
49758;SDS011;70329;45.524;10.194;2024-02-04T15:46:10;63.67;;;29.52;;
49758;SDS011;70329;45.524;10.194;2024-02-04T15:48:39;65.72;;;31.08;;
49758;SDS011;70329;45.524;10.194;2024-02-04T15:51:08;70.18;;;31.27;;
49758;SDS011;70329;45.524;10.194;2024-02-04T15:53:36;66.32;;;32.55;;
49758;SDS011;70329;45.524;10.194;2024-02-04T15:56:04;67.70;;;32.03;;
49758;SDS011;70329;45.524;10.194;2024-02-04T15:58:33;71.18;;;33.20;;